sensor_id;sensor_type;location;lat;lon;timestamp;P1;durP1;ratioP1;P2;durP2;ratioP2
8191;SDS011;4137;49.764;8.652;2022-07-03T00:01:51;1.85;;;0.60;;
8191;SDS011;4137;49.764;8.652;2022-07-03T00:04:17;0.50;;;0.50;;
8191;SDS011;4137;49.764;8.652;2022-07-03T00:06:45;0.57;;;0.57;;
8191;SDS011;4137;49.764;8.652;2022-07-03T00:09:11;0.60;;;0.60;;
8191;SDS011;4137;49.764;8.652;2022-07-03T00:11:37;0.68;;;0.68;;
8191;SDS011;4137;49.764;8.652;2022-07-03T00:14:04;0.65;;;0.65;;
8191;SDS011;4137;49.764;8.652;2022-07-03T00:16:30;1.83;;;0.68;;
8191;SDS011;4137;49.764;8.652;2022-07-03T00:18:56;0.65;;;0.65;;
8191;SDS011;4137;49.764;8.652;2022-07-03T00:21:25;0.52;;;0.52;;
8191;SDS011;4137;49.764;8.652;2022-07-03T00:24:02;1.60;;;0.60;;
8191;SDS011;4137;49.764;8.652;2022-07-03T00:26:29;1.75;;;0.60;;
8191;SDS011;4137;49.764;8.652;2022-07-03T00:28:56;0.60;;;0.60;;
8191;SDS011;4137;49.764;8.652;2022-07-03T00:31:23;0.65;;;0.65;;
8191;SDS011;4137;49.764;8.652;2022-07-03T00:33:49;1.75;;;0.85;;
8191;SDS011;4137;49.764;8.652;2022-07-03T00:36:16;0.70;;;0.70;;
8191;SDS011;4137;49.764;8.652;2022-07-03T00:38:43;1.75;;;0.70;;
8191;SDS011;4137;49.764;8.652;2022-07-03T00:41:22;0.93;;;0.90;;
8191;SDS011;4137;49.764;8.652;2022-07-03T00:43:49;0.70;;;0.70;;
8191;SDS011;4137;49.764;8.652;2022-07-03T00:46:15;3.13;;;0.90;;
8191;SDS011;4137;49.764;8.652;2022-07-03T00:48:42;1.02;;;0.60;;
8191;SDS011;4137;49.764;8.652;2022-07-03T00:51:13;0.68;;;0.68;;
8191;SDS011;4137;49.764;8.652;2022-07-03T00:53:40;1.35;;;0.60;;
8191;SDS011;4137;49.764;8.652;2022-07-03T00:56:07;0.60;;;0.60;;
8191;SDS011;4137;49.764;8.652;2022-07-03T00:58:34;0.52;;;0.52;;
8191;SDS011;4137;49.764;8.652;2022-07-03T01:01:00;0.60;;;0.60;;
8191;SDS011;4137;49.764;8.652;2022-07-03T01:03:26;1.35;;;0.95;;
8191;SDS011;4137;49.764;8.652;2022-07-03T01:05:54;0.70;;;0.70;;
8191;SDS011;4137;49.764;8.652;2022-07-03T01:08:21;0.60;;;0.60;;
8191;SDS011;4137;49.764;8.652;2022-07-03T01:11:01;1.65;;;1.05;;
8191;SDS011;4137;49.764;8.652;2022-07-03T01:16:57;1.38;;;0.90;;
8191;SDS011;4137;49.764;8.652;2022-07-03T01:21:36;0.80;;;0.80;;
8191;SDS011;4137;49.764;8.652;2022-07-03T01:26:40;0.98;;;0.93;;
8191;SDS011;4137;49.764;8.652;2022-07-03T01:29:08;0.80;;;0.80;;
8191;SDS011;4137;49.764;8.652;2022-07-03T01:31:37;0.70;;;0.65;;
8191;SDS011;4137;49.764;8.652;2022-07-03T01:34:05;0.65;;;0.65;;
8191;SDS011;4137;49.764;8.652;2022-07-03T01:36:33;0.70;;;0.70;;
8191;SDS011;4137;49.764;8.652;2022-07-03T01:39:00;0.80;;;0.80;;
8191;SDS011;4137;49.764;8.652;2022-07-03T01:41:28;1.27;;;0.80;;
8191;SDS011;4137;49.764;8.652;2022-07-03T01:43:56;0.60;;;0.60;;
8191;SDS011;4137;49.764;8.652;2022-07-03T01:46:26;0.80;;;0.80;;
8191;SDS011;4137;49.764;8.652;2022-07-03T01:48:53;0.77;;;0.77;;
8191;SDS011;4137;49.764;8.652;2022-07-03T01:51:20;0.65;;;0.60;;
8191;SDS011;4137;49.764;8.652;2022-07-03T01:53:48;1.27;;;0.80;;
8191;SDS011;4137;49.764;8.652;2022-07-03T01:56:15;1.45;;;0.70;;
8191;SDS011;4137;49.764;8.652;2022-07-03T01:58:41;0.98;;;0.70;;
8191;SDS011;4137;49.764;8.652;2022-07-03T02:01:08;0.80;;;0.80;;
8191;SDS011;4137;49.764;8.652;2022-07-03T02:03:38;1.55;;;0.60;;
8191;SDS011;4137;49.764;8.652;2022-07-03T02:06:06;0.73;;;0.73;;
8191;SDS011;4137;49.764;8.652;2022-07-03T02:08:39;0.80;;;0.80;;
8191;SDS011;4137;49.764;8.652;2022-07-03T02:13:44;0.73;;;0.73;;
8191;SDS011;4137;49.764;8.652;2022-07-03T02:16:16;1.42;;;0.90;;
8191;SDS011;4137;49.764;8.652;2022-07-03T02:18:43;1.23;;;0.80;;
8191;SDS011;4137;49.764;8.652;2022-07-03T02:21:14;0.80;;;0.80;;
8191;SDS011;4137;49.764;8.652;2022-07-03T02:24:23;0.70;;;0.70;;
8191;SDS011;4137;49.764;8.652;2022-07-03T02:26:31;1.13;;;0.77;;
8191;SDS011;4137;49.764;8.652;2022-07-03T02:28:59;1.05;;;0.70;;
8191;SDS011;4137;49.764;8.652;2022-07-03T02:31:27;0.80;;;0.80;;
8191;SDS011;4137;49.764;8.652;2022-07-03T02:33:55;3.65;;;0.90;;
8191;SDS011;4137;49.764;8.652;2022-07-03T02:36:23;0.90;;;0.90;;
8191;SDS011;4137;49.764;8.652;2022-07-03T02:38:52;2.85;;;1.00;;
8191;SDS011;4137;49.764;8.652;2022-07-03T02:41:21;0.80;;;0.80;;
8191;SDS011;4137;49.764;8.652;2022-07-03T02:44:01;0.80;;;0.80;;
8191;SDS011;4137;49.764;8.652;2022-07-03T02:51:39;1.63;;;0.88;;
8191;SDS011;4137;49.764;8.652;2022-07-03T02:54:12;4.72;;;0.80;;
8191;SDS011;4137;49.764;8.652;2022-07-03T02:57:01;0.73;;;0.73;;
8191;SDS011;4137;49.764;8.652;2022-07-03T03:04:49;1.92;;;1.25;;
8191;SDS011;4137;49.764;8.652;2022-07-03T03:07:18;3.13;;;0.80;;
8191;SDS011;4137;49.764;8.652;2022-07-03T03:09:47;1.48;;;1.00;;
8191;SDS011;4137;49.764;8.652;2022-07-03T03:12:13;1.75;;;0.77;;
8191;SDS011;4137;49.764;8.652;2022-07-03T03:14:43;0.95;;;0.95;;
8191;SDS011;4137;49.764;8.652;2022-07-03T03:17:13;1.15;;;0.73;;
8191;SDS011;4137;49.764;8.652;2022-07-03T03:19:41;1.00;;;1.00;;
8191;SDS011;4137;49.764;8.652;2022-07-03T03:24:56;1.00;;;1.00;;
8191;SDS011;4137;49.764;8.652;2022-07-03T03:27:22;0.88;;;0.88;;
8191;SDS011;4137;49.764;8.652;2022-07-03T03:29:48;1.20;;;1.15;;
8191;SDS011;4137;49.764;8.652;2022-07-03T03:32:15;0.85;;;0.85;;
8191;SDS011;4137;49.764;8.652;2022-07-03T03:34:42;0.80;;;0.80;;
8191;SDS011;4137;49.764;8.652;2022-07-03T03:37:08;0.90;;;0.90;;
8191;SDS011;4137;49.764;8.652;2022-07-03T03:39:34;1.00;;;1.00;;
8191;SDS011;4137;49.764;8.652;2022-07-03T03:42:01;1.00;;;0.90;;
8191;SDS011;4137;49.764;8.652;2022-07-03T03:44:27;1.00;;;1.00;;
8191;SDS011;4137;49.764;8.652;2022-07-03T03:46:54;1.48;;;0.90;;
8191;SDS011;4137;49.764;8.652;2022-07-03T03:49:20;1.75;;;1.30;;
8191;SDS011;4137;49.764;8.652;2022-07-03T03:51:47;2.67;;;0.85;;
8191;SDS011;4137;49.764;8.652;2022-07-03T03:54:13;1.38;;;1.00;;
8191;SDS011;4137;49.764;8.652;2022-07-03T03:56:39;1.23;;;1.00;;
8191;SDS011;4137;49.764;8.652;2022-07-03T03:59:05;2.25;;;0.90;;
8191;SDS011;4137;49.764;8.652;2022-07-03T04:01:31;1.48;;;0.90;;
8191;SDS011;4137;49.764;8.652;2022-07-03T04:03:57;0.88;;;0.88;;
8191;SDS011;4137;49.764;8.652;2022-07-03T04:06:24;1.58;;;0.88;;
8191;SDS011;4137;49.764;8.652;2022-07-03T04:08:50;4.60;;;1.45;;
8191;SDS011;4137;49.764;8.652;2022-07-03T04:11:17;1.10;;;1.10;;
8191;SDS011;4137;49.764;8.652;2022-07-03T04:13:43;1.00;;;1.00;;
8191;SDS011;4137;49.764;8.652;2022-07-03T04:16:10;3.80;;;1.13;;
8191;SDS011;4137;49.764;8.652;2022-07-03T04:18:36;0.90;;;0.90;;
8191;SDS011;4137;49.764;8.652;2022-07-03T04:21:02;0.80;;;0.80;;
8191;SDS011;4137;49.764;8.652;2022-07-03T04:23:29;1.38;;;1.00;;
8191;SDS011;4137;49.764;8.652;2022-07-03T04:25:55;0.88;;;0.88;;
8191;SDS011;4137;49.764;8.652;2022-07-03T04:28:21;1.05;;;1.00;;
8191;SDS011;4137;49.764;8.652;2022-07-03T04:30:48;0.80;;;0.80;;
8191;SDS011;4137;49.764;8.652;2022-07-03T04:33:14;1.65;;;1.00;;
8191;SDS011;4137;49.764;8.652;2022-07-03T04:35:40;0.90;;;0.90;;
8191;SDS011;4137;49.764;8.652;2022-07-03T04:38:06;2.85;;;0.95;;
8191;SDS011;4137;49.764;8.652;2022-07-03T04:40:32;1.20;;;1.10;;
8191;SDS011;4137;49.764;8.652;2022-07-03T04:42:58;1.05;;;1.05;;
8191;SDS011;4137;49.764;8.652;2022-07-03T04:45:24;0.98;;;0.98;;
8191;SDS011;4137;49.764;8.652;2022-07-03T04:47:50;2.40;;;1.02;;
8191;SDS011;4137;49.764;8.652;2022-07-03T04:50:16;1.08;;;1.08;;
8191;SDS011;4137;49.764;8.652;2022-07-03T04:52:42;1.02;;;1.02;;
8191;SDS011;4137;49.764;8.652;2022-07-03T04:55:08;1.17;;;0.93;;
8191;SDS011;4137;49.764;8.652;2022-07-03T04:57:35;1.08;;;1.08;;
8191;SDS011;4137;49.764;8.652;2022-07-03T05:00:01;0.80;;;0.80;;
8191;SDS011;4137;49.764;8.652;2022-07-03T05:02:27;2.25;;;1.27;;
8191;SDS011;4137;49.764;8.652;2022-07-03T05:04:53;1.20;;;1.10;;
8191;SDS011;4137;49.764;8.652;2022-07-03T05:07:19;1.45;;;1.23;;
8191;SDS011;4137;49.764;8.652;2022-07-03T05:09:45;1.08;;;1.08;;
8191;SDS011;4137;49.764;8.652;2022-07-03T05:12:11;1.48;;;1.30;;
8191;SDS011;4137;49.764;8.652;2022-07-03T05:14:37;1.70;;;1.48;;
8191;SDS011;4137;49.764;8.652;2022-07-03T05:17:03;1.40;;;1.40;;
8191;SDS011;4137;49.764;8.652;2022-07-03T05:19:29;1.35;;;1.25;;
8191;SDS011;4137;49.764;8.652;2022-07-03T05:21:55;2.97;;;1.30;;
8191;SDS011;4137;49.764;8.652;2022-07-03T05:24:21;2.45;;;1.00;;
8191;SDS011;4137;49.764;8.652;2022-07-03T05:26:49;2.28;;;1.40;;
8191;SDS011;4137;49.764;8.652;2022-07-03T05:29:15;1.23;;;1.13;;
8191;SDS011;4137;49.764;8.652;2022-07-03T05:31:41;1.20;;;1.10;;
8191;SDS011;4137;49.764;8.652;2022-07-03T05:34:07;1.85;;;1.25;;
8191;SDS011;4137;49.764;8.652;2022-07-03T05:36:33;1.23;;;1.23;;
8191;SDS011;4137;49.764;8.652;2022-07-03T05:38:59;2.78;;;1.20;;
8191;SDS011;4137;49.764;8.652;2022-07-03T05:41:44;4.78;;;1.58;;
8191;SDS011;4137;49.764;8.652;2022-07-03T05:44:10;1.10;;;1.10;;
8191;SDS011;4137;49.764;8.652;2022-07-03T05:46:36;1.27;;;1.17;;
8191;SDS011;4137;49.764;8.652;2022-07-03T05:49:02;1.45;;;1.30;;
8191;SDS011;4137;49.764;8.652;2022-07-03T05:51:28;1.08;;;1.08;;
8191;SDS011;4137;49.764;8.652;2022-07-03T05:53:54;1.15;;;1.15;;
8191;SDS011;4137;49.764;8.652;2022-07-03T05:56:20;2.60;;;1.00;;
8191;SDS011;4137;49.764;8.652;2022-07-03T05:58:46;1.65;;;1.00;;
8191;SDS011;4137;49.764;8.652;2022-07-03T06:01:12;1.17;;;1.17;;
8191;SDS011;4137;49.764;8.652;2022-07-03T06:03:38;1.08;;;1.08;;
8191;SDS011;4137;49.764;8.652;2022-07-03T06:06:04;4.30;;;1.15;;
8191;SDS011;4137;49.764;8.652;2022-07-03T06:08:30;1.55;;;1.23;;
8191;SDS011;4137;49.764;8.652;2022-07-03T06:10:56;1.45;;;1.05;;
8191;SDS011;4137;49.764;8.652;2022-07-03T06:13:22;1.10;;;1.10;;
8191;SDS011;4137;49.764;8.652;2022-07-03T06:15:48;1.20;;;1.17;;
8191;SDS011;4137;49.764;8.652;2022-07-03T06:18:14;1.00;;;1.00;;
8191;SDS011;4137;49.764;8.652;2022-07-03T06:20:40;1.55;;;1.00;;
8191;SDS011;4137;49.764;8.652;2022-07-03T06:23:06;0.80;;;0.80;;
8191;SDS011;4137;49.764;8.652;2022-07-03T06:25:32;1.00;;;1.00;;
8191;SDS011;4137;49.764;8.652;2022-07-03T06:27:58;1.30;;;0.80;;
8191;SDS011;4137;49.764;8.652;2022-07-03T06:30:24;0.90;;;0.90;;
8191;SDS011;4137;49.764;8.652;2022-07-03T06:32:50;1.45;;;0.80;;
8191;SDS011;4137;49.764;8.652;2022-07-03T06:35:16;1.00;;;1.00;;
8191;SDS011;4137;49.764;8.652;2022-07-03T06:37:42;1.00;;;1.00;;
8191;SDS011;4137;49.764;8.652;2022-07-03T06:40:08;1.10;;;1.10;;
8191;SDS011;4137;49.764;8.652;2022-07-03T06:42:34;1.35;;;1.20;;
8191;SDS011;4137;49.764;8.652;2022-07-03T06:45:00;0.80;;;0.80;;
8191;SDS011;4137;49.764;8.652;2022-07-03T06:47:26;1.98;;;1.08;;
8191;SDS011;4137;49.764;8.652;2022-07-03T06:49:52;1.08;;;0.93;;
8191;SDS011;4137;49.764;8.652;2022-07-03T06:52:18;1.23;;;1.00;;
8191;SDS011;4137;49.764;8.652;2022-07-03T06:54:44;1.90;;;0.93;;
8191;SDS011;4137;49.764;8.652;2022-07-03T06:57:11;2.65;;;1.10;;
8191;SDS011;4137;49.764;8.652;2022-07-03T06:59:37;1.00;;;1.00;;
8191;SDS011;4137;49.764;8.652;2022-07-03T07:02:03;0.95;;;0.95;;
8191;SDS011;4137;49.764;8.652;2022-07-03T07:04:29;4.85;;;0.90;;
8191;SDS011;4137;49.764;8.652;2022-07-03T07:06:55;1.00;;;1.00;;
8191;SDS011;4137;49.764;8.652;2022-07-03T07:09:21;1.05;;;1.00;;
8191;SDS011;4137;49.764;8.652;2022-07-03T07:11:47;0.80;;;0.80;;
8191;SDS011;4137;49.764;8.652;2022-07-03T07:14:13;3.30;;;0.90;;
8191;SDS011;4137;49.764;8.652;2022-07-03T07:16:39;1.77;;;0.80;;
8191;SDS011;4137;49.764;8.652;2022-07-03T07:19:05;0.70;;;0.70;;
8191;SDS011;4137;49.764;8.652;2022-07-03T07:21:31;0.77;;;0.77;;
8191;SDS011;4137;49.764;8.652;2022-07-03T07:23:57;1.10;;;1.00;;
8191;SDS011;4137;49.764;8.652;2022-07-03T07:26:23;0.70;;;0.70;;
8191;SDS011;4137;49.764;8.652;2022-07-03T07:28:49;0.90;;;0.90;;
8191;SDS011;4137;49.764;8.652;2022-07-03T07:31:15;0.90;;;0.90;;
8191;SDS011;4137;49.764;8.652;2022-07-03T07:33:41;0.80;;;0.80;;
8191;SDS011;4137;49.764;8.652;2022-07-03T07:36:06;1.40;;;1.05;;
8191;SDS011;4137;49.764;8.652;2022-07-03T07:38:33;1.30;;;1.00;;
8191;SDS011;4137;49.764;8.652;2022-07-03T07:40:59;1.67;;;1.00;;
8191;SDS011;4137;49.764;8.652;2022-07-03T07:43:25;1.00;;;0.95;;
8191;SDS011;4137;49.764;8.652;2022-07-03T07:45:51;0.80;;;0.80;;
8191;SDS011;4137;49.764;8.652;2022-07-03T07:48:18;4.32;;;1.17;;
8191;SDS011;4137;49.764;8.652;2022-07-03T07:50:44;1.75;;;0.85;;
8191;SDS011;4137;49.764;8.652;2022-07-03T07:53:10;1.08;;;1.00;;
8191;SDS011;4137;49.764;8.652;2022-07-03T07:55:36;2.08;;;1.10;;
8191;SDS011;4137;49.764;8.652;2022-07-03T07:58:02;1.20;;;1.20;;
8191;SDS011;4137;49.764;8.652;2022-07-03T08:00:28;0.90;;;0.90;;
8191;SDS011;4137;49.764;8.652;2022-07-03T08:02:54;1.67;;;1.30;;
8191;SDS011;4137;49.764;8.652;2022-07-03T08:05:39;1.20;;;1.20;;
8191;SDS011;4137;49.764;8.652;2022-07-03T08:08:08;1.00;;;0.93;;
8191;SDS011;4137;49.764;8.652;2022-07-03T08:10:40;1.60;;;1.00;;
8191;SDS011;4137;49.764;8.652;2022-07-03T08:13:06;1.80;;;1.00;;
8191;SDS011;4137;49.764;8.652;2022-07-03T08:15:33;2.67;;;0.80;;
8191;SDS011;4137;49.764;8.652;2022-07-03T08:17:59;1.27;;;1.10;;
8191;SDS011;4137;49.764;8.652;2022-07-03T08:20:25;0.90;;;0.90;;
8191;SDS011;4137;49.764;8.652;2022-07-03T08:22:51;1.15;;;1.00;;
8191;SDS011;4137;49.764;8.652;2022-07-03T08:25:17;0.80;;;0.80;;
8191;SDS011;4137;49.764;8.652;2022-07-03T08:27:43;0.82;;;0.82;;
8191;SDS011;4137;49.764;8.652;2022-07-03T08:30:09;0.90;;;0.90;;
8191;SDS011;4137;49.764;8.652;2022-07-03T08:32:36;0.90;;;0.90;;
8191;SDS011;4137;49.764;8.652;2022-07-03T08:35:02;1.10;;;1.10;;
8191;SDS011;4137;49.764;8.652;2022-07-03T08:37:28;1.02;;;1.00;;
8191;SDS011;4137;49.764;8.652;2022-07-03T08:39:54;0.90;;;0.90;;
8191;SDS011;4137;49.764;8.652;2022-07-03T08:42:20;0.90;;;0.90;;
8191;SDS011;4137;49.764;8.652;2022-07-03T08:44:47;1.00;;;1.00;;
8191;SDS011;4137;49.764;8.652;2022-07-03T08:47:15;0.93;;;0.90;;
8191;SDS011;4137;49.764;8.652;2022-07-03T08:49:42;1.10;;;0.90;;
8191;SDS011;4137;49.764;8.652;2022-07-03T08:52:09;1.35;;;1.20;;
8191;SDS011;4137;49.764;8.652;2022-07-03T08:54:36;1.20;;;1.00;;
8191;SDS011;4137;49.764;8.652;2022-07-03T08:57:02;1.27;;;1.27;;
8191;SDS011;4137;49.764;8.652;2022-07-03T08:59:31;0.77;;;0.77;;
8191;SDS011;4137;49.764;8.652;2022-07-03T09:01:58;1.08;;;1.08;;
8191;SDS011;4137;49.764;8.652;2022-07-03T09:04:24;1.13;;;0.90;;
8191;SDS011;4137;49.764;8.652;2022-07-03T09:06:50;0.98;;;0.98;;
8191;SDS011;4137;49.764;8.652;2022-07-03T09:09:16;0.95;;;0.95;;
8191;SDS011;4137;49.764;8.652;2022-07-03T09:11:42;1.00;;;1.00;;
8191;SDS011;4137;49.764;8.652;2022-07-03T09:14:09;0.75;;;0.75;;
8191;SDS011;4137;49.764;8.652;2022-07-03T09:16:35;0.98;;;0.98;;
8191;SDS011;4137;49.764;8.652;2022-07-03T09:19:01;1.23;;;1.13;;
8191;SDS011;4137;49.764;8.652;2022-07-03T09:21:39;2.58;;;0.90;;
8191;SDS011;4137;49.764;8.652;2022-07-03T09:24:07;2.00;;;0.80;;
8191;SDS011;4137;49.764;8.652;2022-07-03T09:26:33;1.85;;;1.52;;
8191;SDS011;4137;49.764;8.652;2022-07-03T09:29:00;0.95;;;0.88;;
8191;SDS011;4137;49.764;8.652;2022-07-03T09:31:27;0.98;;;0.80;;
8191;SDS011;4137;49.764;8.652;2022-07-03T09:36:21;0.70;;;0.70;;
8191;SDS011;4137;49.764;8.652;2022-07-03T09:38:47;0.88;;;0.88;;
8191;SDS011;4137;49.764;8.652;2022-07-03T09:41:13;1.02;;;0.85;;
8191;SDS011;4137;49.764;8.652;2022-07-03T09:43:42;3.60;;;1.00;;
8191;SDS011;4137;49.764;8.652;2022-07-03T09:46:09;0.63;;;0.60;;
8191;SDS011;4137;49.764;8.652;2022-07-03T09:48:36;0.55;;;0.55;;
8191;SDS011;4137;49.764;8.652;2022-07-03T09:56:12;0.90;;;0.60;;
8191;SDS011;4137;49.764;8.652;2022-07-03T09:58:38;0.70;;;0.70;;
8191;SDS011;4137;49.764;8.652;2022-07-03T10:01:19;2.28;;;0.75;;
8191;SDS011;4137;49.764;8.652;2022-07-03T10:03:47;1.67;;;0.68;;
8191;SDS011;4137;49.764;8.652;2022-07-03T10:06:14;1.35;;;0.60;;
8191;SDS011;4137;49.764;8.652;2022-07-03T10:08:43;2.28;;;0.70;;
8191;SDS011;4137;49.764;8.652;2022-07-03T10:11:09;0.85;;;0.70;;
8191;SDS011;4137;49.764;8.652;2022-07-03T10:13:37;1.40;;;0.50;;
8191;SDS011;4137;49.764;8.652;2022-07-03T10:16:07;0.50;;;0.50;;
8191;SDS011;4137;49.764;8.652;2022-07-03T10:18:36;0.60;;;0.60;;
8191;SDS011;4137;49.764;8.652;2022-07-03T10:21:05;0.50;;;0.50;;
8191;SDS011;4137;49.764;8.652;2022-07-03T10:23:31;0.60;;;0.60;;
8191;SDS011;4137;49.764;8.652;2022-07-03T10:25:57;1.40;;;0.50;;
8191;SDS011;4137;49.764;8.652;2022-07-03T10:28:23;0.40;;;0.40;;
8191;SDS011;4137;49.764;8.652;2022-07-03T10:30:49;2.50;;;0.60;;
8191;SDS011;4137;49.764;8.652;2022-07-03T10:33:15;0.45;;;0.40;;
8191;SDS011;4137;49.764;8.652;2022-07-03T10:35:47;0.40;;;0.40;;
8191;SDS011;4137;49.764;8.652;2022-07-03T10:43:44;0.60;;;0.60;;
8191;SDS011;4137;49.764;8.652;2022-07-03T10:46:29;0.40;;;0.40;;
8191;SDS011;4137;49.764;8.652;2022-07-03T10:49:03;1.40;;;0.50;;
8191;SDS011;4137;49.764;8.652;2022-07-03T10:51:31;0.40;;;0.40;;
8191;SDS011;4137;49.764;8.652;2022-07-03T11:07:25;1.98;;;0.55;;
8191;SDS011;4137;49.764;8.652;2022-07-03T11:18:09;0.40;;;0.40;;
8191;SDS011;4137;49.764;8.652;2022-07-03T11:28:05;0.40;;;0.40;;
8191;SDS011;4137;49.764;8.652;2022-07-03T11:30:31;3.85;;;0.60;;
8191;SDS011;4137;49.764;8.652;2022-07-03T11:32:58;0.40;;;0.38;;
8191;SDS011;4137;49.764;8.652;2022-07-03T11:38:11;2.08;;;0.55;;
8191;SDS011;4137;49.764;8.652;2022-07-03T11:40:37;0.55;;;0.50;;
8191;SDS011;4137;49.764;8.652;2022-07-03T11:43:06;0.45;;;0.45;;
8191;SDS011;4137;49.764;8.652;2022-07-03T11:45:32;0.40;;;0.40;;
8191;SDS011;4137;49.764;8.652;2022-07-03T11:47:58;0.30;;;0.30;;
8191;SDS011;4137;49.764;8.652;2022-07-03T11:50:41;0.90;;;0.30;;
8191;SDS011;4137;49.764;8.652;2022-07-03T11:53:41;1.60;;;0.30;;
8191;SDS011;4137;49.764;8.652;2022-07-03T11:58:39;1.58;;;0.40;;
8191;SDS011;4137;49.764;8.652;2022-07-03T12:01:07;1.45;;;0.30;;
8191;SDS011;4137;49.764;8.652;2022-07-03T12:03:33;0.30;;;0.30;;
8191;SDS011;4137;49.764;8.652;2022-07-03T12:05:59;1.98;;;0.40;;
8191;SDS011;4137;49.764;8.652;2022-07-03T12:08:26;0.30;;;0.30;;
8191;SDS011;4137;49.764;8.652;2022-07-03T12:10:56;1.45;;;0.40;;
8191;SDS011;4137;49.764;8.652;2022-07-03T12:13:23;0.40;;;0.40;;
8191;SDS011;4137;49.764;8.652;2022-07-03T12:15:50;0.40;;;0.40;;
8191;SDS011;4137;49.764;8.652;2022-07-03T12:18:16;0.47;;;0.40;;
8191;SDS011;4137;49.764;8.652;2022-07-03T12:20:42;0.40;;;0.40;;
8191;SDS011;4137;49.764;8.652;2022-07-03T12:23:08;1.70;;;0.38;;
8191;SDS011;4137;49.764;8.652;2022-07-03T12:25:40;0.30;;;0.30;;
8191;SDS011;4137;49.764;8.652;2022-07-03T12:28:08;0.38;;;0.38;;
8191;SDS011;4137;49.764;8.652;2022-07-03T12:30:34;0.40;;;0.40;;
8191;SDS011;4137;49.764;8.652;2022-07-03T12:33:01;1.20;;;0.30;;
8191;SDS011;4137;49.764;8.652;2022-07-03T12:35:27;0.40;;;0.40;;
8191;SDS011;4137;49.764;8.652;2022-07-03T12:37:54;0.30;;;0.30;;
8191;SDS011;4137;49.764;8.652;2022-07-03T12:40:20;0.40;;;0.40;;
8191;SDS011;4137;49.764;8.652;2022-07-03T12:42:50;0.40;;;0.40;;
8191;SDS011;4137;49.764;8.652;2022-07-03T12:45:17;1.08;;;0.50;;
8191;SDS011;4137;49.764;8.652;2022-07-03T12:47:44;1.30;;;0.40;;
8191;SDS011;4137;49.764;8.652;2022-07-03T12:50:10;0.35;;;0.35;;
8191;SDS011;4137;49.764;8.652;2022-07-03T12:52:52;1.55;;;0.40;;
8191;SDS011;4137;49.764;8.652;2022-07-03T12:55:26;2.70;;;0.50;;
8191;SDS011;4137;49.764;8.652;2022-07-03T13:00:55;1.85;;;0.40;;
8191;SDS011;4137;49.764;8.652;2022-07-03T13:05:53;3.13;;;0.40;;
8191;SDS011;4137;49.764;8.652;2022-07-03T13:08:19;1.95;;;0.30;;
8191;SDS011;4137;49.764;8.652;2022-07-03T13:10:53;2.10;;;0.40;;
8191;SDS011;4137;49.764;8.652;2022-07-03T13:13:19;3.30;;;0.30;;
8191;SDS011;4137;49.764;8.652;2022-07-03T13:15:45;0.65;;;0.40;;
8191;SDS011;4137;49.764;8.652;2022-07-03T13:18:11;0.70;;;0.52;;
8191;SDS011;4137;49.764;8.652;2022-07-03T13:20:37;1.33;;;0.38;;
8191;SDS011;4137;49.764;8.652;2022-07-03T13:23:03;0.43;;;0.43;;
8191;SDS011;4137;49.764;8.652;2022-07-03T13:25:30;0.40;;;0.40;;
8191;SDS011;4137;49.764;8.652;2022-07-03T13:28:13;0.40;;;0.40;;
8191;SDS011;4137;49.764;8.652;2022-07-03T13:30:39;0.35;;;0.35;;
8191;SDS011;4137;49.764;8.652;2022-07-03T13:33:06;0.75;;;0.30;;
8191;SDS011;4137;49.764;8.652;2022-07-03T13:35:32;1.17;;;0.30;;
8191;SDS011;4137;49.764;8.652;2022-07-03T13:37:58;0.60;;;0.60;;
8191;SDS011;4137;49.764;8.652;2022-07-03T13:40:24;2.80;;;0.40;;
8191;SDS011;4137;49.764;8.652;2022-07-03T13:42:50;0.40;;;0.40;;
8191;SDS011;4137;49.764;8.652;2022-07-03T13:45:16;0.32;;;0.32;;
8191;SDS011;4137;49.764;8.652;2022-07-03T13:47:45;0.50;;;0.40;;
8191;SDS011;4137;49.764;8.652;2022-07-03T13:50:11;0.85;;;0.30;;
8191;SDS011;4137;49.764;8.652;2022-07-03T13:52:37;0.45;;;0.30;;
8191;SDS011;4137;49.764;8.652;2022-07-03T13:55:04;3.97;;;0.28;;
8191;SDS011;4137;49.764;8.652;2022-07-03T13:57:30;0.32;;;0.32;;
8191;SDS011;4137;49.764;8.652;2022-07-03T13:59:57;0.22;;;0.22;;
8191;SDS011;4137;49.764;8.652;2022-07-03T14:02:23;0.30;;;0.30;;
8191;SDS011;4137;49.764;8.652;2022-07-03T14:04:50;0.47;;;0.47;;
8191;SDS011;4137;49.764;8.652;2022-07-03T14:07:16;0.30;;;0.30;;
8191;SDS011;4137;49.764;8.652;2022-07-03T14:09:42;1.20;;;0.38;;
8191;SDS011;4137;49.764;8.652;2022-07-03T14:12:08;0.40;;;0.40;;
8191;SDS011;4137;49.764;8.652;2022-07-03T14:14:34;0.30;;;0.30;;
8191;SDS011;4137;49.764;8.652;2022-07-03T14:17:00;0.65;;;0.40;;
8191;SDS011;4137;49.764;8.652;2022-07-03T14:19:26;0.30;;;0.30;;
8191;SDS011;4137;49.764;8.652;2022-07-03T14:21:52;0.63;;;0.30;;
8191;SDS011;4137;49.764;8.652;2022-07-03T14:24:18;0.30;;;0.30;;
8191;SDS011;4137;49.764;8.652;2022-07-03T14:26:44;0.40;;;0.40;;
8191;SDS011;4137;49.764;8.652;2022-07-03T14:29:29;1.17;;;0.30;;
8191;SDS011;4137;49.764;8.652;2022-07-03T14:32:13;0.35;;;0.35;;
8191;SDS011;4137;49.764;8.652;2022-07-03T14:34:55;0.20;;;0.20;;
8191;SDS011;4137;49.764;8.652;2022-07-03T14:37:21;1.25;;;0.30;;
8191;SDS011;4137;49.764;8.652;2022-07-03T14:39:47;1.30;;;0.40;;
8191;SDS011;4137;49.764;8.652;2022-07-03T14:42:14;2.90;;;0.40;;
8191;SDS011;4137;49.764;8.652;2022-07-03T14:44:40;0.30;;;0.30;;
8191;SDS011;4137;49.764;8.652;2022-07-03T14:47:06;1.33;;;0.50;;
8191;SDS011;4137;49.764;8.652;2022-07-03T14:49:32;1.75;;;0.32;;
8191;SDS011;4137;49.764;8.652;2022-07-03T14:52:02;4.57;;;0.30;;
8191;SDS011;4137;49.764;8.652;2022-07-03T14:54:28;0.30;;;0.30;;
8191;SDS011;4137;49.764;8.652;2022-07-03T14:56:57;1.55;;;0.22;;
8191;SDS011;4137;49.764;8.652;2022-07-03T15:01:56;2.08;;;0.30;;
8191;SDS011;4137;49.764;8.652;2022-07-03T15:04:40;0.30;;;0.30;;
8191;SDS011;4137;49.764;8.652;2022-07-03T15:07:08;0.40;;;0.40;;
8191;SDS011;4137;49.764;8.652;2022-07-03T15:09:37;0.40;;;0.40;;
8191;SDS011;4137;49.764;8.652;2022-07-03T15:12:03;0.40;;;0.40;;
8191;SDS011;4137;49.764;8.652;2022-07-03T15:14:50;0.60;;;0.60;;
8191;SDS011;4137;49.764;8.652;2022-07-03T15:17:17;0.50;;;0.50;;
8191;SDS011;4137;49.764;8.652;2022-07-03T15:19:43;0.88;;;0.40;;
8191;SDS011;4137;49.764;8.652;2022-07-03T15:22:09;0.30;;;0.30;;
8191;SDS011;4137;49.764;8.652;2022-07-03T15:24:38;1.27;;;0.45;;
8191;SDS011;4137;49.764;8.652;2022-07-03T15:27:06;1.00;;;0.50;;
8191;SDS011;4137;49.764;8.652;2022-07-03T15:29:34;0.98;;;0.40;;
8191;SDS011;4137;49.764;8.652;2022-07-03T15:32:01;1.65;;;0.40;;
8191;SDS011;4137;49.764;8.652;2022-07-03T15:34:27;1.27;;;0.50;;
8191;SDS011;4137;49.764;8.652;2022-07-03T15:36:58;0.40;;;0.38;;
8191;SDS011;4137;49.764;8.652;2022-07-03T15:39:42;0.40;;;0.40;;
8191;SDS011;4137;49.764;8.652;2022-07-03T15:45:02;0.60;;;0.60;;
8191;SDS011;4137;49.764;8.652;2022-07-03T15:47:45;1.35;;;0.50;;
8191;SDS011;4137;49.764;8.652;2022-07-03T15:50:57;2.10;;;0.80;;
8191;SDS011;4137;49.764;8.652;2022-07-03T15:53:03;0.50;;;0.50;;
8191;SDS011;4137;49.764;8.652;2022-07-03T15:55:31;0.90;;;0.47;;
8191;SDS011;4137;49.764;8.652;2022-07-03T15:58:01;0.50;;;0.50;;
8191;SDS011;4137;49.764;8.652;2022-07-03T16:00:29;0.57;;;0.57;;
8191;SDS011;4137;49.764;8.652;2022-07-03T16:03:09;0.40;;;0.30;;
8191;SDS011;4137;49.764;8.652;2022-07-03T16:05:36;1.85;;;0.40;;
8191;SDS011;4137;49.764;8.652;2022-07-03T16:08:04;4.13;;;0.43;;
8191;SDS011;4137;49.764;8.652;2022-07-03T16:10:31;0.30;;;0.30;;
8191;SDS011;4137;49.764;8.652;2022-07-03T16:12:58;2.58;;;0.50;;
8191;SDS011;4137;49.764;8.652;2022-07-03T16:15:29;0.40;;;0.40;;
8191;SDS011;4137;49.764;8.652;2022-07-03T16:17:58;0.63;;;0.60;;
8191;SDS011;4137;49.764;8.652;2022-07-03T16:20:25;0.43;;;0.43;;
8191;SDS011;4137;49.764;8.652;2022-07-03T16:22:59;0.57;;;0.50;;
8191;SDS011;4137;49.764;8.652;2022-07-03T16:25:26;0.55;;;0.50;;
8191;SDS011;4137;49.764;8.652;2022-07-03T16:27:52;1.50;;;0.40;;
8191;SDS011;4137;49.764;8.652;2022-07-03T16:30:18;3.20;;;0.30;;
8191;SDS011;4137;49.764;8.652;2022-07-03T16:32:44;4.93;;;0.90;;
8191;SDS011;4137;49.764;8.652;2022-07-03T16:35:14;0.82;;;0.40;;
8191;SDS011;4137;49.764;8.652;2022-07-03T16:37:48;0.70;;;0.40;;
8191;SDS011;4137;49.764;8.652;2022-07-03T16:40:17;0.40;;;0.40;;
8191;SDS011;4137;49.764;8.652;2022-07-03T16:42:44;0.75;;;0.50;;